sensor_id;sensor_type;location;lat;lon;timestamp;P1;durP1;ratioP1;P2;durP2;ratioP2
11671;SDS011;5892;43.412;24.612;2022-10-18T00:01:32;7.47;;;4.47;;
11671;SDS011;5892;43.412;24.612;2022-10-18T00:03:58;8.40;;;4.53;;
11671;SDS011;5892;43.412;24.612;2022-10-18T00:06:26;5.70;;;4.23;;
11671;SDS011;5892;43.412;24.612;2022-10-18T00:08:54;5.90;;;4.20;;
11671;SDS011;5892;43.412;24.612;2022-10-18T00:11:21;7.47;;;4.77;;
11671;SDS011;5892;43.412;24.612;2022-10-18T00:13:49;6.90;;;4.30;;
11671;SDS011;5892;43.412;24.612;2022-10-18T00:16:16;6.17;;;4.33;;
11671;SDS011;5892;43.412;24.612;2022-10-18T00:18:44;6.57;;;4.30;;
11671;SDS011;5892;43.412;24.612;2022-10-18T00:21:13;5.00;;;4.10;;
11671;SDS011;5892;43.412;24.612;2022-10-18T00:23:42;7.90;;;4.10;;
11671;SDS011;5892;43.412;24.612;2022-10-18T00:26:11;8.13;;;4.50;;
11671;SDS011;5892;43.412;24.612;2022-10-18T00:28:39;7.47;;;4.20;;
11671;SDS011;5892;43.412;24.612;2022-10-18T00:31:11;8.37;;;3.83;;
11671;SDS011;5892;43.412;24.612;2022-10-18T00:33:40;5.83;;;3.90;;
11671;SDS011;5892;43.412;24.612;2022-10-18T00:36:07;5.87;;;4.20;;
11671;SDS011;5892;43.412;24.612;2022-10-18T00:38:34;7.17;;;4.30;;
11671;SDS011;5892;43.412;24.612;2022-10-18T00:41:01;5.40;;;4.47;;
11671;SDS011;5892;43.412;24.612;2022-10-18T00:43:31;7.20;;;4.27;;
11671;SDS011;5892;43.412;24.612;2022-10-18T00:45:58;5.33;;;4.00;;
11671;SDS011;5892;43.412;24.612;2022-10-18T00:48:25;6.37;;;4.20;;
11671;SDS011;5892;43.412;24.612;2022-10-18T00:50:52;6.50;;;3.83;;
11671;SDS011;5892;43.412;24.612;2022-10-18T00:53:20;5.73;;;4.10;;
11671;SDS011;5892;43.412;24.612;2022-10-18T00:55:48;5.50;;;4.30;;
11671;SDS011;5892;43.412;24.612;2022-10-18T00:58:16;5.97;;;4.03;;
11671;SDS011;5892;43.412;24.612;2022-10-18T01:00:45;6.10;;;4.37;;
11671;SDS011;5892;43.412;24.612;2022-10-18T01:03:12;6.83;;;4.63;;
11671;SDS011;5892;43.412;24.612;2022-10-18T01:05:40;6.97;;;4.40;;
11671;SDS011;5892;43.412;24.612;2022-10-18T01:11:22;6.77;;;4.20;;
11671;SDS011;5892;43.412;24.612;2022-10-18T01:14:04;6.60;;;4.17;;
11671;SDS011;5892;43.412;24.612;2022-10-18T01:16:42;4.77;;;4.23;;
11671;SDS011;5892;43.412;24.612;2022-10-18T01:19:19;4.67;;;4.17;;
11671;SDS011;5892;43.412;24.612;2022-10-18T01:22:06;5.20;;;4.53;;
11671;SDS011;5892;43.412;24.612;2022-10-18T01:24:51;7.83;;;4.40;;
11671;SDS011;5892;43.412;24.612;2022-10-18T01:27:37;6.13;;;4.20;;
11671;SDS011;5892;43.412;24.612;2022-10-18T01:30:21;7.30;;;4.40;;
11671;SDS011;5892;43.412;24.612;2022-10-18T01:32:59;7.30;;;4.53;;
11671;SDS011;5892;43.412;24.612;2022-10-18T01:35:31;6.40;;;4.57;;
11671;SDS011;5892;43.412;24.612;2022-10-18T01:38:03;8.30;;;4.40;;
11671;SDS011;5892;43.412;24.612;2022-10-18T01:40:35;4.63;;;4.10;;
11671;SDS011;5892;43.412;24.612;2022-10-18T01:43:04;8.10;;;4.20;;
11671;SDS011;5892;43.412;24.612;2022-10-18T01:45:34;4.87;;;4.20;;
11671;SDS011;5892;43.412;24.612;2022-10-18T01:48:02;5.10;;;4.03;;
11671;SDS011;5892;43.412;24.612;2022-10-18T01:50:30;5.03;;;4.10;;
11671;SDS011;5892;43.412;24.612;2022-10-18T01:52:58;4.23;;;3.83;;
11671;SDS011;5892;43.412;24.612;2022-10-18T01:55:31;6.33;;;4.40;;
11671;SDS011;5892;43.412;24.612;2022-10-18T01:58:03;5.83;;;4.10;;
11671;SDS011;5892;43.412;24.612;2022-10-18T02:00:39;6.53;;;4.43;;
11671;SDS011;5892;43.412;24.612;2022-10-18T02:03:11;5.37;;;4.10;;
11671;SDS011;5892;43.412;24.612;2022-10-18T02:05:43;5.77;;;4.23;;
11671;SDS011;5892;43.412;24.612;2022-10-18T02:08:19;7.73;;;4.40;;
11671;SDS011;5892;43.412;24.612;2022-10-18T02:10:53;4.60;;;4.20;;
11671;SDS011;5892;43.412;24.612;2022-10-18T02:13:25;4.67;;;4.20;;
11671;SDS011;5892;43.412;24.612;2022-10-18T02:15:58;6.13;;;4.40;;
11671;SDS011;5892;43.412;24.612;2022-10-18T02:18:30;6.90;;;4.67;;
11671;SDS011;5892;43.412;24.612;2022-10-18T02:21:01;7.60;;;4.50;;
11671;SDS011;5892;43.412;24.612;2022-10-18T02:23:30;8.90;;;4.20;;
11671;SDS011;5892;43.412;24.612;2022-10-18T02:25:59;7.70;;;4.77;;
11671;SDS011;5892;43.412;24.612;2022-10-18T02:28:26;4.73;;;4.10;;
11671;SDS011;5892;43.412;24.612;2022-10-18T02:30:56;6.13;;;4.10;;
11671;SDS011;5892;43.412;24.612;2022-10-18T02:33:32;6.80;;;4.60;;
11671;SDS011;5892;43.412;24.612;2022-10-18T02:36:05;7.73;;;5.00;;
11671;SDS011;5892;43.412;24.612;2022-10-18T02:38:38;5.80;;;4.17;;
11671;SDS011;5892;43.412;24.612;2022-10-18T02:41:07;5.60;;;4.30;;
11671;SDS011;5892;43.412;24.612;2022-10-18T02:43:34;5.67;;;4.50;;
11671;SDS011;5892;43.412;24.612;2022-10-18T02:46:02;6.37;;;4.50;;
11671;SDS011;5892;43.412;24.612;2022-10-18T02:48:29;5.93;;;4.47;;
11671;SDS011;5892;43.412;24.612;2022-10-18T02:50:56;5.57;;;4.20;;
11671;SDS011;5892;43.412;24.612;2022-10-18T02:53:23;6.23;;;4.50;;
11671;SDS011;5892;43.412;24.612;2022-10-18T02:55:50;7.47;;;4.57;;
11671;SDS011;5892;43.412;24.612;2022-10-18T02:58:17;6.47;;;5.10;;
11671;SDS011;5892;43.412;24.612;2022-10-18T03:00:44;5.23;;;4.50;;
11671;SDS011;5892;43.412;24.612;2022-10-18T03:03:12;8.03;;;5.23;;
11671;SDS011;5892;43.412;24.612;2022-10-18T03:05:39;7.37;;;4.80;;
11671;SDS011;5892;43.412;24.612;2022-10-18T03:08:06;7.73;;;4.97;;
11671;SDS011;5892;43.412;24.612;2022-10-18T03:10:33;6.20;;;4.73;;
11671;SDS011;5892;43.412;24.612;2022-10-18T03:12:59;6.07;;;4.80;;
11671;SDS011;5892;43.412;24.612;2022-10-18T03:15:26;5.23;;;4.47;;
11671;SDS011;5892;43.412;24.612;2022-10-18T03:17:53;11.60;;;4.50;;
11671;SDS011;5892;43.412;24.612;2022-10-18T03:20:21;6.17;;;4.80;;
11671;SDS011;5892;43.412;24.612;2022-10-18T03:22:50;5.00;;;4.50;;
11671;SDS011;5892;43.412;24.612;2022-10-18T03:25:16;5.53;;;4.53;;
11671;SDS011;5892;43.412;24.612;2022-10-18T03:27:43;5.03;;;4.20;;
11671;SDS011;5892;43.412;24.612;2022-10-18T03:30:10;5.47;;;4.70;;
11671;SDS011;5892;43.412;24.612;2022-10-18T03:32:38;10.40;;;4.90;;
11671;SDS011;5892;43.412;24.612;2022-10-18T03:35:05;10.30;;;4.93;;
11671;SDS011;5892;43.412;24.612;2022-10-18T03:37:35;9.40;;;5.10;;
11671;SDS011;5892;43.412;24.612;2022-10-18T03:40:02;5.80;;;4.90;;
11671;SDS011;5892;43.412;24.612;2022-10-18T03:42:29;5.33;;;4.73;;
11671;SDS011;5892;43.412;24.612;2022-10-18T03:44:56;5.67;;;4.70;;
11671;SDS011;5892;43.412;24.612;2022-10-18T03:47:23;7.70;;;5.17;;
11671;SDS011;5892;43.412;24.612;2022-10-18T03:49:50;8.10;;;4.97;;
11671;SDS011;5892;43.412;24.612;2022-10-18T03:52:17;5.97;;;5.07;;
11671;SDS011;5892;43.412;24.612;2022-10-18T03:54:45;7.17;;;5.37;;
11671;SDS011;5892;43.412;24.612;2022-10-18T03:57:12;8.07;;;4.83;;
11671;SDS011;5892;43.412;24.612;2022-10-18T03:59:39;6.43;;;5.40;;
11671;SDS011;5892;43.412;24.612;2022-10-18T04:02:06;6.10;;;5.20;;
11671;SDS011;5892;43.412;24.612;2022-10-18T04:04:32;6.97;;;5.23;;
11671;SDS011;5892;43.412;24.612;2022-10-18T04:06:59;6.00;;;5.17;;
11671;SDS011;5892;43.412;24.612;2022-10-18T04:09:26;7.13;;;5.33;;
11671;SDS011;5892;43.412;24.612;2022-10-18T04:11:54;9.43;;;6.13;;
11671;SDS011;5892;43.412;24.612;2022-10-18T04:14:21;14.13;;;5.73;;
11671;SDS011;5892;43.412;24.612;2022-10-18T04:16:48;7.33;;;5.57;;
11671;SDS011;5892;43.412;24.612;2022-10-18T04:19:15;10.83;;;6.23;;
11671;SDS011;5892;43.412;24.612;2022-10-18T04:21:42;10.10;;;6.20;;
11671;SDS011;5892;43.412;24.612;2022-10-18T04:24:09;11.40;;;6.57;;
11671;SDS011;5892;43.412;24.612;2022-10-18T04:26:36;8.37;;;6.10;;
11671;SDS011;5892;43.412;24.612;2022-10-18T04:29:04;14.40;;;6.00;;
11671;SDS011;5892;43.412;24.612;2022-10-18T04:31:31;8.33;;;6.13;;
11671;SDS011;5892;43.412;24.612;2022-10-18T04:33:58;10.90;;;5.83;;
11671;SDS011;5892;43.412;24.612;2022-10-18T04:36:26;7.40;;;6.27;;
11671;SDS011;5892;43.412;24.612;2022-10-18T04:38:53;8.17;;;6.20;;
11671;SDS011;5892;43.412;24.612;2022-10-18T04:41:20;10.60;;;6.30;;
11671;SDS011;5892;43.412;24.612;2022-10-18T04:43:47;8.97;;;6.83;;
11671;SDS011;5892;43.412;24.612;2022-10-18T04:46:18;13.07;;;6.90;;
11671;SDS011;5892;43.412;24.612;2022-10-18T04:48:45;9.23;;;6.57;;
11671;SDS011;5892;43.412;24.612;2022-10-18T04:51:12;10.23;;;6.90;;
11671;SDS011;5892;43.412;24.612;2022-10-18T04:53:39;17.33;;;7.10;;
11671;SDS011;5892;43.412;24.612;2022-10-18T04:56:06;14.93;;;7.10;;
11671;SDS011;5892;43.412;24.612;2022-10-18T04:58:33;20.27;;;7.93;;
11671;SDS011;5892;43.412;24.612;2022-10-18T05:01:03;12.20;;;6.27;;
11671;SDS011;5892;43.412;24.612;2022-10-18T05:03:31;24.77;;;7.00;;
11671;SDS011;5892;43.412;24.612;2022-10-18T05:05:59;16.50;;;6.63;;
11671;SDS011;5892;43.412;24.612;2022-10-18T05:08:26;26.07;;;8.07;;
11671;SDS011;5892;43.412;24.612;2022-10-18T05:10:53;20.17;;;6.90;;
11671;SDS011;5892;43.412;24.612;2022-10-18T05:13:20;27.07;;;7.70;;
11671;SDS011;5892;43.412;24.612;2022-10-18T05:15:47;20.80;;;7.97;;
11671;SDS011;5892;43.412;24.612;2022-10-18T05:18:14;21.37;;;13.67;;
11671;SDS011;5892;43.412;24.612;2022-10-18T05:20:42;16.57;;;10.50;;
11671;SDS011;5892;43.412;24.612;2022-10-18T05:23:09;13.40;;;8.60;;
11671;SDS011;5892;43.412;24.612;2022-10-18T05:25:36;14.90;;;7.93;;
11671;SDS011;5892;43.412;24.612;2022-10-18T05:28:04;14.33;;;7.80;;
11671;SDS011;5892;43.412;24.612;2022-10-18T05:30:31;12.00;;;7.37;;
11671;SDS011;5892;43.412;24.612;2022-10-18T05:32:58;14.70;;;7.60;;
11671;SDS011;5892;43.412;24.612;2022-10-18T05:35:25;10.23;;;7.07;;
11671;SDS011;5892;43.412;24.612;2022-10-18T05:37:53;15.73;;;7.53;;
11671;SDS011;5892;43.412;24.612;2022-10-18T05:40:20;25.20;;;7.23;;
11671;SDS011;5892;43.412;24.612;2022-10-18T05:42:49;21.13;;;7.50;;
11671;SDS011;5892;43.412;24.612;2022-10-18T05:45:19;13.87;;;8.03;;
11671;SDS011;5892;43.412;24.612;2022-10-18T05:47:46;16.53;;;7.27;;
11671;SDS011;5892;43.412;24.612;2022-10-18T05:50:13;15.77;;;7.70;;
11671;SDS011;5892;43.412;24.612;2022-10-18T05:52:40;14.00;;;8.10;;
11671;SDS011;5892;43.412;24.612;2022-10-18T05:55:08;13.93;;;7.97;;
11671;SDS011;5892;43.412;24.612;2022-10-18T05:57:35;21.90;;;8.27;;
11671;SDS011;5892;43.412;24.612;2022-10-18T06:00:04;16.60;;;8.10;;
11671;SDS011;5892;43.412;24.612;2022-10-18T06:02:31;17.30;;;9.03;;
11671;SDS011;5892;43.412;24.612;2022-10-18T06:05:00;17.63;;;8.90;;
11671;SDS011;5892;43.412;24.612;2022-10-18T06:07:27;15.37;;;9.27;;
11671;SDS011;5892;43.412;24.612;2022-10-18T06:09:54;18.83;;;8.73;;
11671;SDS011;5892;43.412;24.612;2022-10-18T06:12:22;18.43;;;9.50;;
11671;SDS011;5892;43.412;24.612;2022-10-18T06:14:49;19.80;;;9.97;;
11671;SDS011;5892;43.412;24.612;2022-10-18T06:17:16;26.83;;;12.17;;
11671;SDS011;5892;43.412;24.612;2022-10-18T06:19:43;27.87;;;11.77;;
11671;SDS011;5892;43.412;24.612;2022-10-18T06:22:10;22.53;;;13.10;;
11671;SDS011;5892;43.412;24.612;2022-10-18T06:24:37;27.33;;;14.00;;
11671;SDS011;5892;43.412;24.612;2022-10-18T06:27:04;26.43;;;13.83;;
11671;SDS011;5892;43.412;24.612;2022-10-18T06:29:34;23.80;;;14.93;;
11671;SDS011;5892;43.412;24.612;2022-10-18T06:32:02;24.33;;;15.70;;
11671;SDS011;5892;43.412;24.612;2022-10-18T06:34:29;23.83;;;15.27;;
11671;SDS011;5892;43.412;24.612;2022-10-18T06:36:56;38.80;;;15.80;;
11671;SDS011;5892;43.412;24.612;2022-10-18T06:39:23;29.10;;;15.60;;
11671;SDS011;5892;43.412;24.612;2022-10-18T06:41:50;29.90;;;16.20;;
11671;SDS011;5892;43.412;24.612;2022-10-18T06:44:17;34.43;;;15.97;;
11671;SDS011;5892;43.412;24.612;2022-10-18T06:46:45;30.67;;;15.87;;
11671;SDS011;5892;43.412;24.612;2022-10-18T06:49:13;34.60;;;16.07;;
11671;SDS011;5892;43.412;24.612;2022-10-18T06:51:41;26.67;;;16.37;;
11671;SDS011;5892;43.412;24.612;2022-10-18T06:54:08;26.70;;;17.50;;
11671;SDS011;5892;43.412;24.612;2022-10-18T06:56:37;27.77;;;17.43;;
11671;SDS011;5892;43.412;24.612;2022-10-18T06:59:04;30.27;;;18.33;;
11671;SDS011;5892;43.412;24.612;2022-10-18T07:01:31;26.90;;;17.47;;
11671;SDS011;5892;43.412;24.612;2022-10-18T07:03:59;28.83;;;17.47;;
11671;SDS011;5892;43.412;24.612;2022-10-18T07:06:26;30.50;;;18.17;;
11671;SDS011;5892;43.412;24.612;2022-10-18T07:08:53;29.77;;;17.90;;
11671;SDS011;5892;43.412;24.612;2022-10-18T07:11:21;25.00;;;17.83;;
11671;SDS011;5892;43.412;24.612;2022-10-18T07:13:49;29.87;;;17.43;;
11671;SDS011;5892;43.412;24.612;2022-10-18T07:16:18;28.20;;;16.50;;
11671;SDS011;5892;43.412;24.612;2022-10-18T07:18:46;30.20;;;15.17;;
11671;SDS011;5892;43.412;24.612;2022-10-18T07:21:16;27.80;;;15.13;;
11671;SDS011;5892;43.412;24.612;2022-10-18T07:23:44;25.67;;;14.97;;
11671;SDS011;5892;43.412;24.612;2022-10-18T07:26:15;25.87;;;15.57;;
11671;SDS011;5892;43.412;24.612;2022-10-18T07:28:45;29.00;;;15.73;;
11671;SDS011;5892;43.412;24.612;2022-10-18T07:31:13;26.63;;;15.77;;
11671;SDS011;5892;43.412;24.612;2022-10-18T07:33:41;26.70;;;16.10;;
11671;SDS011;5892;43.412;24.612;2022-10-18T07:36:09;30.43;;;17.47;;
11671;SDS011;5892;43.412;24.612;2022-10-18T07:38:38;24.43;;;17.13;;
11671;SDS011;5892;43.412;24.612;2022-10-18T07:41:07;29.60;;;17.03;;
11671;SDS011;5892;43.412;24.612;2022-10-18T07:43:43;23.67;;;17.57;;
11671;SDS011;5892;43.412;24.612;2022-10-18T07:46:12;24.90;;;17.27;;
11671;SDS011;5892;43.412;24.612;2022-10-18T07:48:40;23.80;;;16.90;;
11671;SDS011;5892;43.412;24.612;2022-10-18T07:51:07;22.27;;;16.87;;
11671;SDS011;5892;43.412;24.612;2022-10-18T07:53:34;20.13;;;15.93;;
11671;SDS011;5892;43.412;24.612;2022-10-18T07:56:04;24.03;;;14.00;;
11671;SDS011;5892;43.412;24.612;2022-10-18T07:58:32;21.90;;;13.90;;
11671;SDS011;5892;43.412;24.612;2022-10-18T08:01:00;17.57;;;12.97;;
11671;SDS011;5892;43.412;24.612;2022-10-18T08:03:28;21.70;;;11.77;;
11671;SDS011;5892;43.412;24.612;2022-10-18T08:05:56;16.30;;;10.87;;
11671;SDS011;5892;43.412;24.612;2022-10-18T08:08:23;16.07;;;11.10;;
11671;SDS011;5892;43.412;24.612;2022-10-18T08:10:50;17.40;;;10.67;;
11671;SDS011;5892;43.412;24.612;2022-10-18T08:13:21;20.47;;;10.80;;
11671;SDS011;5892;43.412;24.612;2022-10-18T08:15:48;17.43;;;10.60;;
11671;SDS011;5892;43.412;24.612;2022-10-18T08:18:15;17.43;;;10.03;;
11671;SDS011;5892;43.412;24.612;2022-10-18T08:20:42;12.03;;;9.00;;
11671;SDS011;5892;43.412;24.612;2022-10-18T08:23:10;15.57;;;9.30;;
11671;SDS011;5892;43.412;24.612;2022-10-18T08:25:38;18.47;;;9.93;;
11671;SDS011;5892;43.412;24.612;2022-10-18T08:28:07;16.13;;;8.80;;
11671;SDS011;5892;43.412;24.612;2022-10-18T08:30:35;14.00;;;8.70;;
11671;SDS011;5892;43.412;24.612;2022-10-18T08:33:03;13.93;;;8.47;;
11671;SDS011;5892;43.412;24.612;2022-10-18T08:35:30;15.73;;;8.40;;
11671;SDS011;5892;43.412;24.612;2022-10-18T08:37:57;19.53;;;9.27;;
11671;SDS011;5892;43.412;24.612;2022-10-18T08:40:25;13.57;;;8.07;;
11671;SDS011;5892;43.412;24.612;2022-10-18T08:42:59;11.47;;;8.20;;
11671;SDS011;5892;43.412;24.612;2022-10-18T08:45:33;13.73;;;7.50;;
11671;SDS011;5892;43.412;24.612;2022-10-18T08:48:07;11.80;;;7.50;;
11671;SDS011;5892;43.412;24.612;2022-10-18T08:50:45;10.30;;;7.03;;
11671;SDS011;5892;43.412;24.612;2022-10-18T08:53:15;14.57;;;6.80;;
11671;SDS011;5892;43.412;24.612;2022-10-18T08:55:47;18.90;;;6.37;;
11671;SDS011;5892;43.412;24.612;2022-10-18T08:58:18;9.93;;;6.50;;
11671;SDS011;5892;43.412;24.612;2022-10-18T09:00:51;13.37;;;6.10;;
11671;SDS011;5892;43.412;24.612;2022-10-18T09:03:37;11.50;;;6.10;;
11671;SDS011;5892;43.412;24.612;2022-10-18T09:06:22;10.43;;;5.03;;
11671;SDS011;5892;43.412;24.612;2022-10-18T09:09:00;11.03;;;5.50;;
11671;SDS011;5892;43.412;24.612;2022-10-18T09:11:46;8.07;;;5.30;;
11671;SDS011;5892;43.412;24.612;2022-10-18T09:14:33;10.00;;;4.90;;
11671;SDS011;5892;43.412;24.612;2022-10-18T09:17:21;8.47;;;4.90;;
11671;SDS011;5892;43.412;24.612;2022-10-18T09:19:59;9.07;;;5.30;;
11671;SDS011;5892;43.412;24.612;2022-10-18T09:22:38;10.40;;;4.87;;
11671;SDS011;5892;43.412;24.612;2022-10-18T09:25:16;10.70;;;4.70;;
11671;SDS011;5892;43.412;24.612;2022-10-18T09:27:46;8.87;;;4.00;;
11671;SDS011;5892;43.412;24.612;2022-10-18T09:30:21;7.70;;;3.37;;
11671;SDS011;5892;43.412;24.612;2022-10-18T09:35:59;6.10;;;3.27;;
11671;SDS011;5892;43.412;24.612;2022-10-18T09:38:30;5.50;;;2.90;;
11671;SDS011;5892;43.412;24.612;2022-10-18T09:41:01;4.83;;;2.90;;
11671;SDS011;5892;43.412;24.612;2022-10-18T09:43:37;6.00;;;2.97;;
11671;SDS011;5892;43.412;24.612;2022-10-18T09:46:12;6.33;;;3.10;;
11671;SDS011;5892;43.412;24.612;2022-10-18T09:48:44;7.07;;;2.90;;
11671;SDS011;5892;43.412;24.612;2022-10-18T09:51:15;6.00;;;2.97;;
11671;SDS011;5892;43.412;24.612;2022-10-18T09:53:50;5.80;;;2.93;;
11671;SDS011;5892;43.412;24.612;2022-10-18T09:56:43;4.83;;;2.60;;
11671;SDS011;5892;43.412;24.612;2022-10-18T09:59:22;5.40;;;2.77;;
11671;SDS011;5892;43.412;24.612;2022-10-18T10:01:58;3.53;;;2.50;;
11671;SDS011;5892;43.412;24.612;2022-10-18T10:04:27;5.37;;;2.50;;
11671;SDS011;5892;43.412;24.612;2022-10-18T10:06:55;3.70;;;2.23;;
11671;SDS011;5892;43.412;24.612;2022-10-18T10:09:26;6.07;;;2.53;;
11671;SDS011;5892;43.412;24.612;2022-10-18T10:11:55;3.93;;;2.50;;
11671;SDS011;5892;43.412;24.612;2022-10-18T10:14:23;3.77;;;2.47;;
11671;SDS011;5892;43.412;24.612;2022-10-18T10:16:52;6.30;;;2.30;;
11671;SDS011;5892;43.412;24.612;2022-10-18T10:19:27;4.87;;;2.40;;
11671;SDS011;5892;43.412;24.612;2022-10-18T10:21:57;3.00;;;2.30;;
11671;SDS011;5892;43.412;24.612;2022-10-18T10:27:15;6.37;;;2.53;;
11671;SDS011;5892;43.412;24.612;2022-10-18T10:29:49;8.93;;;2.60;;
11671;SDS011;5892;43.412;24.612;2022-10-18T10:32:26;6.50;;;2.53;;
11671;SDS011;5892;43.412;24.612;2022-10-18T10:34:57;4.93;;;2.50;;
11671;SDS011;5892;43.412;24.612;2022-10-18T10:37:29;6.40;;;2.53;;
11671;SDS011;5892;43.412;24.612;2022-10-18T10:40:10;2.90;;;2.30;;
11671;SDS011;5892;43.412;24.612;2022-10-18T10:45:55;3.77;;;2.10;;
11671;SDS011;5892;43.412;24.612;2022-10-18T10:48:25;4.97;;;2.53;;
11671;SDS011;5892;43.412;24.612;2022-10-18T10:50:59;4.73;;;2.30;;
11671;SDS011;5892;43.412;24.612;2022-10-18T10:53:43;5.87;;;2.33;;
11671;SDS011;5892;43.412;24.612;2022-10-18T10:56:17;4.27;;;2.30;;
11671;SDS011;5892;43.412;24.612;2022-10-18T10:58:48;3.77;;;2.30;;
11671;SDS011;5892;43.412;24.612;2022-10-18T11:01:24;5.50;;;2.33;;
11671;SDS011;5892;43.412;24.612;2022-10-18T11:03:53;4.57;;;2.10;;
11671;SDS011;5892;43.412;24.612;2022-10-18T11:06:41;6.47;;;2.13;;
11671;SDS011;5892;43.412;24.612;2022-10-18T11:09:19;4.30;;;2.03;;
11671;SDS011;5892;43.412;24.612;2022-10-18T11:11:57;2.70;;;2.27;;
11671;SDS011;5892;43.412;24.612;2022-10-18T11:14:28;3.70;;;2.10;;
11671;SDS011;5892;43.412;24.612;2022-10-18T11:17:04;6.07;;;2.47;;
11671;SDS011;5892;43.412;24.612;2022-10-18T11:19:41;5.10;;;2.20;;
11671;SDS011;5892;43.412;24.612;2022-10-18T11:22:19;5.30;;;2.20;;
11671;SDS011;5892;43.412;24.612;2022-10-18T11:24:49;4.47;;;2.40;;
11671;SDS011;5892;43.412;24.612;2022-10-18T11:27:18;7.63;;;2.30;;
11671;SDS011;5892;43.412;24.612;2022-10-18T11:29:54;7.13;;;2.03;;
11671;SDS011;5892;43.412;24.612;2022-10-18T11:32:32;5.20;;;2.00;;
11671;SDS011;5892;43.412;24.612;2022-10-18T11:35:18;3.07;;;1.90;;
11671;SDS011;5892;43.412;24.612;2022-10-18T11:38:02;4.53;;;2.00;;
11671;SDS011;5892;43.412;24.612;2022-10-18T11:40:38;2.53;;;1.90;;
11671;SDS011;5892;43.412;24.612;2022-10-18T11:43:13;4.17;;;1.90;;
11671;SDS011;5892;43.412;24.612;2022-10-18T11:45:50;2.97;;;1.63;;
11671;SDS011;5892;43.412;24.612;2022-10-18T11:48:35;4.90;;;2.00;;
11671;SDS011;5892;43.412;24.612;2022-10-18T11:51:27;3.90;;;1.90;;
11671;SDS011;5892;43.412;24.612;2022-10-18T11:54:04;4.63;;;1.87;;
11671;SDS011;5892;43.412;24.612;2022-10-18T11:56:47;5.30;;;2.07;;
11671;SDS011;5892;43.412;24.612;2022-10-18T11:59:26;2.50;;;2.07;;
11671;SDS011;5892;43.412;24.612;2022-10-18T12:02:17;7.63;;;2.20;;
11671;SDS011;5892;43.412;24.612;2022-10-18T12:05:09;7.23;;;2.10;;
11671;SDS011;5892;43.412;24.612;2022-10-18T12:07:39;5.27;;;1.87;;
11671;SDS011;5892;43.412;24.612;2022-10-18T12:10:15;4.33;;;2.00;;
11671;SDS011;5892;43.412;24.612;2022-10-18T12:12:47;4.23;;;1.90;;
11671;SDS011;5892;43.412;24.612;2022-10-18T12:15:17;3.77;;;1.60;;
11671;SDS011;5892;43.412;24.612;2022-10-18T12:17:48;3.83;;;1.80;;
11671;SDS011;5892;43.412;24.612;2022-10-18T12:20:19;4.20;;;1.70;;
11671;SDS011;5892;43.412;24.612;2022-10-18T12:22:52;3.13;;;1.70;;
11671;SDS011;5892;43.412;24.612;2022-10-18T12:25:26;3.13;;;1.70;;
11671;SDS011;5892;43.412;24.612;2022-10-18T12:27:55;4.00;;;1.90;;
11671;SDS011;5892;43.412;24.612;2022-10-18T12:30:26;5.33;;;1.60;;
11671;SDS011;5892;43.412;24.612;2022-10-18T12:33:01;3.77;;;1.63;;
11671;SDS011;5892;43.412;24.612;2022-10-18T12:35:33;3.10;;;1.80;;
11671;SDS011;5892;43.412;24.612;2022-10-18T12:38:16;2.93;;;1.80;;
11671;SDS011;5892;43.412;24.612;2022-10-18T12:40:48;2.97;;;1.90;;
11671;SDS011;5892;43.412;24.612;2022-10-18T12:43:19;1.77;;;1.50;;
11671;SDS011;5892;43.412;24.612;2022-10-18T12:45:50;5.37;;;1.60;;
11671;SDS011;5892;43.412;24.612;2022-10-18T12:48:29;4.90;;;1.93;;
11671;SDS011;5892;43.412;24.612;2022-10-18T12:50:59;5.23;;;2.13;;
11671;SDS011;5892;43.412;24.612;2022-10-18T12:53:31;4.37;;;2.27;;
11671;SDS011;5892;43.412;24.612;2022-10-18T13:04:59;2.20;;;1.80;;
11671;SDS011;5892;43.412;24.612;2022-10-18T13:07:46;2.70;;;1.63;;
11671;SDS011;5892;43.412;24.612;2022-10-18T13:16:09;2.17;;;1.87;;
11671;SDS011;5892;43.412;24.612;2022-10-18T13:18:51;5.00;;;2.17;;
11671;SDS011;5892;43.412;24.612;2022-10-18T13:21:22;8.17;;;2.17;;
11671;SDS011;5892;43.412;24.612;2022-10-18T13:24:02;4.17;;;2.20;;
11671;SDS011;5892;43.412;24.612;2022-10-18T13:26:46;4.37;;;2.00;;
11671;SDS011;5892;43.412;24.612;2022-10-18T13:29:27;2.67;;;2.30;;
11671;SDS011;5892;43.412;24.612;2022-10-18T13:32:12;4.80;;;2.03;;
11671;SDS011;5892;43.412;24.612;2022-10-18T13:34:49;5.67;;;2.47;;
11671;SDS011;5892;43.412;24.612;2022-10-18T13:37:19;4.17;;;2.40;;
11671;SDS011;5892;43.412;24.612;2022-10-18T13:39:49;7.40;;;2.47;;
11671;SDS011;5892;43.412;24.612;2022-10-18T13:42:22;5.00;;;2.10;;
11671;SDS011;5892;43.412;24.612;2022-10-18T13:45:42;3.10;;;2.00;;
11671;SDS011;5892;43.412;24.612;2022-10-18T13:51:10;2.57;;;2.00;;
11671;SDS011;5892;43.412;24.612;2022-10-18T13:53:49;9.77;;;2.63;;
11671;SDS011;5892;43.412;24.612;2022-10-18T13:56:44;3.67;;;2.00;;
11671;SDS011;5892;43.412;24.612;2022-10-18T13:59:25;4.80;;;2.17;;
11671;SDS011;5892;43.412;24.612;2022-10-18T14:02:14;5.43;;;2.03;;
11671;SDS011;5892;43.412;24.612;2022-10-18T14:05:01;3.80;;;1.93;;
11671;SDS011;5892;43.412;24.612;2022-10-18T14:07:38;4.80;;;2.10;;
11671;SDS011;5892;43.412;24.612;2022-10-18T14:10:08;2.77;;;1.60;;
11671;SDS011;5892;43.412;24.612;2022-10-18T14:12:46;5.93;;;1.80;;
11671;SDS011;5892;43.412;24.612;2022-10-18T14:15:19;3.73;;;1.53;;
11671;SDS011;5892;43.412;24.612;2022-10-18T14:17:51;3.80;;;1.63;;
11671;SDS011;5892;43.412;24.612;2022-10-18T14:20:23;4.27;;;1.80;;
11671;SDS011;5892;43.412;24.612;2022-10-18T14:22:52;2.73;;;1.83;;
11671;SDS011;5892;43.412;24.612;2022-10-18T14:25:27;6.33;;;1.77;;
11671;SDS011;5892;43.412;24.612;2022-10-18T14:28:10;4.00;;;1.87;;
11671;SDS011;5892;43.412;24.612;2022-10-18T14:30:54;2.50;;;2.10;;
11671;SDS011;5892;43.412;24.612;2022-10-18T14:33:27;5.80;;;1.80;;
11671;SDS011;5892;43.412;24.612;2022-10-18T14:35:58;2.83;;;1.80;;
11671;SDS011;5892;43.412;24.612;2022-10-18T14:38:33;2.53;;;1.90;;
11671;SDS011;5892;43.412;24.612;2022-10-18T14:41:05;6.03;;;1.73;;
11671;SDS011;5892;43.412;24.612;2022-10-18T14:43:39;4.13;;;2.10;;
11671;SDS011;5892;43.412;24.612;2022-10-18T14:46:10;4.43;;;2.30;;
11671;SDS011;5892;43.412;24.612;2022-10-18T14:48:51;7.30;;;2.10;;
11671;SDS011;5892;43.412;24.612;2022-10-18T14:51:20;4.23;;;2.30;;
11671;SDS011;5892;43.412;24.612;2022-10-18T14:53:47;6.57;;;2.20;;
11671;SDS011;5892;43.412;24.612;2022-10-18T14:56:20;2.77;;;2.30;;
11671;SDS011;5892;43.412;24.612;2022-10-18T14:58:50;5.23;;;2.30;;
11671;SDS011;5892;43.412;24.612;2022-10-18T15:01:19;8.10;;;3.80;;
11671;SDS011;5892;43.412;24.612;2022-10-18T15:03:48;7.50;;;5.33;;
11671;SDS011;5892;43.412;24.612;2022-10-18T15:06:18;11.87;;;6.63;;
11671;SDS011;5892;43.412;24.612;2022-10-18T15:08:45;10.40;;;5.60;;
11671;SDS011;5892;43.412;24.612;2022-10-18T15:11:16;9.77;;;4.97;;
11671;SDS011;5892;43.412;24.612;2022-10-18T15:13:45;8.70;;;3.47;;
11671;SDS011;5892;43.412;24.612;2022-10-18T15:16:19;12.97;;;4.93;;
11671;SDS011;5892;43.412;24.612;2022-10-18T15:18:58;6.83;;;4.10;;
11671;SDS011;5892;43.412;24.612;2022-10-18T15:21:28;12.80;;;3.70;;
11671;SDS011;5892;43.412;24.612;2022-10-18T15:23:55;12.63;;;4.33;;
11671;SDS011;5892;43.412;24.612;2022-10-18T15:26:45;7.13;;;3.90;;
11671;SDS011;5892;43.412;24.612;2022-10-18T15:29:15;9.87;;;4.23;;
11671;SDS011;5892;43.412;24.612;2022-10-18T15:31:45;10.50;;;4.00;;
11671;SDS011;5892;43.412;24.612;2022-10-18T15:34:14;5.97;;;3.50;;
11671;SDS011;5892;43.412;24.612;2022-10-18T15:36:48;7.23;;;3.40;;